Time;durP1;ratioP1;P1;durP2;ratioP2;P2;SDS_P1;SDS_P2;PMS_P1;PMS_P2;Temp;Humidity;BMP_temperature;BMP_pressure;BME280_temperature;BME280_humidity;BME280_pressure;Samples;Min_cycle;Max_cycle;Signal;HPM_P1;HPM_P2
2022/01/21 00:01:33;;;;;;;33.67;20.23;;;;;;;-1.81;87.53;98069.63;5049708;28;20034;-59
2022/01/21 00:04:00;;;;;;;32.55;19.80;;;;;;;-1.94;86.71;98086.50;5042656;28;20044;-57
2022/01/21 00:06:25;;;;;;;29.02;17.73;;;;;;;-1.96;85.98;98080.56;5045110;28;20221;-57
2022/01/21 00:08:51;;;;;;;28.08;16.25;;;;;;;-2.18;87.19;98069.53;5055194;28;20021;-57
2022/01/21 00:11:18;;;;;;;29.23;17.52;;;;;;;-2.04;87.18;98083.91;5052418;28;20108;-57
2022/01/21 00:13:44;;;;;;;31.38;17.23;;;;;;;-2.19;86.76;98072.91;5059629;28;20074;-57
2022/01/21 00:16:16;;;;;;;26.42;16.60;;;;;;;-2.33;87.01;98006.94;5058770;28;20033;-58
2022/01/21 00:18:51;;;;;;;22.95;13.40;;;;;;;-2.36;85.95;98039.88;5044915;28;20032;-57
2022/01/21 00:32:13;;;;;;;26.60;15.13;;;;;;;-2.13;84.93;98074.59;5043023;28;20041;-57
2022/01/21 00:34:39;;;;;;;25.38;15.80;;;;;;;-2.03;85.46;98076.31;5054345;28;20029;-56
2022/01/21 00:37:04;;;;;;;27.30;15.25;;;;;;;-2.15;86.33;98076.28;5057964;28;20075;-57
2022/01/21 00:39:33;;;;;;;26.08;14.85;;;;;;;-2.16;85.83;98069.53;5057973;28;20021;-57
2022/01/21 00:42:08;;;;;;;24.50;15.25;;;;;;;-2.15;84.88;98076.28;5058025;28;20109;-57
2022/01/21 00:44:34;;;;;;;23.63;14.77;;;;;;;-2.13;85.29;98072.91;5057955;28;20029;-57
2022/01/21 00:47:00;;;;;;;28.30;15.90;;;;;;;-2.03;85.00;98076.31;5057771;28;20079;-57
2022/01/21 00:49:26;;;;;;;24.30;14.77;;;;;;;-2.09;84.96;98073.78;5061094;28;20164;-57
2022/01/21 00:51:51;;;;;;;25.95;15.38;;;;;;;-2.17;84.54;98080.50;5062729;28;20278;-57
2022/01/21 00:54:17;;;;;;;17.67;11.77;;;;;;;-2.35;84.67;98088.88;5064330;28;20032;-57
2022/01/21 00:56:43;;;;;;;25.42;15.15;;;;;;;-2.19;85.23;98077.13;5047579;28;20025;-57
2022/01/21 00:59:08;;;;;;;25.42;15.55;;;;;;;-2.11;85.13;98072.91;5058671;28;20347;-59
2022/01/21 01:01:35;;;;;;;21.67;14.52;;;;;;;-2.17;84.38;98085.56;5061926;28;20104;-59
2022/01/21 01:04:00;;;;;;;23.35;15.13;;;;;;;-2.17;84.76;98080.50;5053505;28;20104;-59
2022/01/21 01:06:26;;;;;;;23.92;15.88;;;;;;;-2.09;84.13;98083.91;5053645;28;20025;-58
2022/01/21 01:08:53;;;;;;;23.90;15.02;;;;;;;-1.98;83.95;98082.25;5043771;28;20025;-59
2022/01/21 01:22:04;;;;;;;24.65;15.25;;;;;;;-2.08;84.51;98086.47;5061570;28;20025;-58
2022/01/21 01:30:00;;;;;;;25.67;14.80;;;;;;;-2.41;84.61;98089.69;5046985;28;20048;-58
2022/01/21 01:32:27;;;;;;;23.58;15.13;;;;;;;-2.24;84.98;98091.47;5062661;28;20031;-58
2022/01/21 01:34:54;;;;;;;21.40;11.85;;;;;;;-2.46;84.27;98076.16;5062753;28;20032;-57
2022/01/21 01:40:01;;;;;;;23.25;14.32;;;;;;;-2.12;84.26;98081.38;5061746;28;20063;-58
2022/01/21 01:50:37;;;;;;;17.90;10.07;;;;;;;-2.34;83.42;98086.34;5060962;28;20103;-58
2022/01/21 01:53:06;;;;;;;25.27;15.38;;;;;;;-2.61;84.44;98042.31;5060811;28;20024;-57
2022/01/21 01:55:32;;;;;;;25.05;15.52;;;;;;;-2.41;84.62;98082.09;5060887;28;20119;-58
2022/01/21 01:57:58;;;;;;;23.52;14.75;;;;;;;-2.39;84.90;98082.97;5060844;28;20044;-57
2022/01/21 02:00:24;;;;;;;28.75;15.88;;;;;;;-2.30;84.02;98074.53;5057858;28;20033;-57
2022/01/21 02:02:49;;;;;;;24.10;15.55;;;;;;;-2.16;84.59;98077.13;5059519;28;20261;-57
2022/01/21 02:05:15;;;;;;;25.70;15.20;;;;;;;-2.22;84.17;98077.09;5060178;28;20029;-57
2022/01/21 02:07:41;;;;;;;24.55;15.73;;;;;;;-2.38;84.81;98056.78;5060579;28;20060;-57
2022/01/21 02:10:06;;;;;;;25.23;15.35;;;;;;;-2.22;84.38;98061.88;5043431;28;20021;-56
2022/01/21 02:12:32;;;;;;;25.48;15.82;;;;;;;-2.15;84.30;98066.13;5045557;28;20036;-56
2022/01/21 02:15:00;;;;;;;26.33;15.23;;;;;;;-2.12;83.72;98058.56;5044162;28;20029;-57
2022/01/21 02:22:44;;;;;;;25.73;15.32;;;;;;;-2.12;85.15;98064.47;5045047;28;20037;-57
2022/01/21 02:25:20;;;;;;;25.85;15.70;;;;;;;-2.16;84.11;98067.00;5055536;28;20059;-57
2022/01/21 02:27:59;;;;;;;24.50;14.73;;;;;;;-2.34;84.28;98061.00;5051615;28;20033;-57
2022/01/21 02:30:26;;;;;;;26.63;16.27;;;;;;;-2.76;85.03;97999.19;5045750;28;20048;-57
2022/01/21 02:32:55;;;;;;;25.45;16.50;;;;;;;-2.14;84.34;98075.44;5048534;28;20033;-57
2022/01/21 02:35:21;;;;;;;28.08;17.17;;;;;;;-2.44;84.54;98059.28;5045386;28;20064;-56
2022/01/21 02:37:47;;;;;;;26.42;15.95;;;;;;;-2.33;84.05;98064.41;5048299;28;20310;-56
2022/01/21 02:40:14;;;;;;;25.77;16.02;;;;;;;-2.22;85.02;98057.69;5059940;28;20129;-57
2022/01/21 02:42:41;;;;;;;26.65;16.17;;;;;;;-2.29;84.27;98051.72;5061058;28;20265;-56
2022/01/21 02:45:09;;;;;;;27.40;16.33;;;;;;;-2.56;84.28;97993.34;5062381;28;20029;-56
2022/01/21 02:47:35;;;;;;;26.20;16.52;;;;;;;-2.30;83.90;98052.56;5062019;28;20082;-57
2022/01/21 02:50:01;;;;;;;26.38;15.50;;;;;;;-2.39;83.40;98055.06;5058288;28;20049;-57
2022/01/21 02:52:29;;;;;;;23.23;15.00;;;;;;;-2.60;84.35;98060.91;5050625;28;20033;-57
2022/01/21 02:54:55;;;;;;;29.58;16.83;;;;;;;-2.62;85.01;98049.91;5055470;28;20075;-57
2022/01/21 02:57:21;;;;;;;27.75;15.88;;;;;;;-2.51;84.89;98049.94;5051884;28;20029;-56
2022/01/21 02:59:49;;;;;;;28.20;17.42;;;;;;;-2.45;85.25;98044.94;5050923;28;20032;-56
2022/01/21 03:02:15;;;;;;;28.52;16.33;;;;;;;-2.57;85.29;98049.94;5055968;28;20064;-56
2022/01/21 03:07:39;;;;;;;27.13;16.23;;;;;;;-2.46;84.25;98043.22;5047417;28;20044;-57
2022/01/21 03:10:05;;;;;;;24.67;15.82;;;;;;;-2.67;84.66;98029.59;5059438;28;20026;-56
2022/01/21 03:12:30;;;;;;;24.75;16.08;;;;;;;-2.60;84.26;98041.47;5058701;28;20326;-56
2022/01/21 03:14:56;;;;;;;25.95;16.92;;;;;;;-2.60;84.85;98038.09;5061309;28;22070;-56
2022/01/21 03:17:22;;;;;;;27.95;16.55;;;;;;;-2.60;85.03;98036.41;5043824;28;20029;-56
2022/01/21 03:19:47;;;;;;;28.58;17.73;;;;;;;-2.44;84.71;98036.47;5043956;28;20037;-56
2022/01/21 03:22:13;;;;;;;27.98;18.17;;;;;;;-2.46;85.02;98046.59;5043888;28;20025;-56
2022/01/21 03:24:39;;;;;;;31.52;18.58;;;;;;;-2.35;84.48;98039.03;5044790;28;20029;-55
2022/01/21 03:27:05;;;;;;;28.92;18.20;;;;;;;-2.33;84.40;98034.81;5044695;28;20096;-55
2022/01/21 03:29:30;;;;;;;32.45;18.90;;;;;;;-2.62;84.73;98027.13;5050367;28;20206;-56
2022/01/21 03:31:56;;;;;;;35.80;19.63;;;;;;;-2.57;84.81;98034.72;5044771;28;20325;-56
2022/01/21 03:34:21;;;;;;;29.60;18.05;;;;;;;-2.66;84.33;98020.34;5036868;28;20025;-54
2022/01/21 03:36:47;;;;;;;30.00;18.73;;;;;;;-2.62;84.79;98025.41;5059005;28;20067;-56
2022/01/21 03:39:13;;;;;;;33.53;18.48;;;;;;;-2.90;84.41;97986.44;5061244;28;20326;-57
2022/01/21 03:41:39;;;;;;;33.05;19.40;;;;;;;-2.54;84.80;98025.44;5060092;28;20336;-57
2022/01/21 03:44:05;;;;;;;31.95;18.63;;;;;;;-2.52;83.61;98010.22;5059118;28;20321;-56
2022/01/21 03:46:30;;;;;;;30.88;18.67;;;;;;;-2.56;83.47;98022.06;5058491;28;20032;-57
2022/01/21 03:48:56;;;;;;;36.60;19.95;;;;;;;-2.66;83.62;98020.34;5057988;28;20024;-56
2022/01/21 03:51:22;;;;;;;34.97;20.13;;;;;;;-2.71;83.43;98016.94;5058465;28;20100;-56
2022/01/21 03:53:47;;;;;;;33.55;20.42;;;;;;;-2.76;84.32;98024.50;5050050;28;20028;-56
2022/01/21 03:56:14;;;;;;;31.73;19.65;;;;;;;-2.80;84.12;98017.75;5057460;28;20033;-56
2022/01/21 03:58:40;;;;;;;33.97;20.08;;;;;;;-2.76;84.85;98021.97;5056457;28;20029;-56
2022/01/21 04:01:06;;;;;;;29.92;20.38;;;;;;;-2.83;85.22;98018.56;5044314;28;20026;-56
2022/01/21 04:03:31;;;;;;;34.65;19.85;;;;;;;-2.69;84.15;98015.25;5043299;28;20532;-57
2022/01/21 04:05:57;;;;;;;36.13;20.08;;;;;;;-2.61;84.04;98016.13;5060994;28;20082;-57
2022/01/21 04:08:23;;;;;;;27.40;13.75;;;;;;;-2.93;83.93;98026.13;5044242;28;20041;-57
2022/01/21 04:10:49;;;;;;;31.95;20.02;;;;;;;-3.05;84.43;98025.22;5048970;28;20033;-57
2022/01/21 04:13:17;;;;;;;36.20;20.10;;;;;;;-3.11;84.32;98027.69;5053998;28;20029;-56
2022/01/21 04:15:46;;;;;;;34.88;20.10;;;;;;;-3.41;84.71;97968.44;5054737;28;20051;-57
2022/01/21 04:18:15;;;;;;;31.65;19.05;;;;;;;-2.94;84.26;98045.50;5058379;28;20092;-57
2022/01/21 04:20:42;;;;;;;38.35;20.95;;;;;;;-3.00;83.45;98033.66;5052536;28;20040;-57
2022/01/21 04:23:10;;;;;;;34.47;19.45;;;;;;;-2.88;83.83;98030.38;5043229;28;20037;-56
2022/01/21 04:25:36;;;;;;;32.47;20.20;;;;;;;-2.96;83.35;98045.50;5044337;28;20033;-57
2022/01/21 04:28:01;;;;;;;36.67;19.23;;;;;;;-3.06;83.05;98025.22;5059338;28;20101;-56
2022/01/21 04:30:27;;;;;;;36.80;22.17;;;;;;;-3.01;83.93;98034.50;5042976;28;20203;-57
2022/01/21 04:32:53;;;;;;;36.25;21.88;;;;;;;-3.02;83.62;98024.38;5039988;28;20090;-55
2022/01/21 04:35:18;;;;;;;37.67;21.45;;;;;;;-2.85;84.06;98044.72;5057359;28;20025;-55
2022/01/21 04:37:52;;;;;;;37.65;21.75;;;;;;;-2.91;83.19;98044.69;5057926;28;20036;-55
2022/01/21 04:40:20;;;;;;;40.83;22.20;;;;;;;-2.82;82.70;98035.47;5044098;28;20096;-54
2022/01/21 04:48:14;;;;;;;39.67;22.75;;;;;;;-2.92;82.97;98045.53;5041676;28;20100;-55
2022/01/21 04:50:58;;;;;;;40.38;23.02;;;;;;;-2.88;83.83;98039.63;5043256;28;20273;-55
2022/01/21 04:53:26;;;;;;;40.03;22.55;;;;;;;-3.41;83.05;97987.84;5046767;28;20017;-54
2022/01/21 04:55:52;;;;;;;39.72;22.63;;;;;;;-3.15;83.36;98053.81;5043367;28;20029;-58
2022/01/21 04:58:18;;;;;;;40.20;23.67;;;;;;;-2.93;83.86;98041.31;5042613;28;20045;-56
2022/01/21 05:00:44;;;;;;;38.97;22.48;;;;;;;-2.75;83.34;98030.41;5043904;28;20021;-58
2022/01/21 05:03:12;;;;;;;37.13;22.25;;;;;;;-3.20;81.87;97992.22;5057682;28;20113;-57
2022/01/21 05:05:38;;;;;;;40.25;21.85;;;;;;;-3.08;82.30;98034.47;5059469;28;20028;-56
2022/01/21 05:08:08;;;;;;;38.72;22.40;;;;;;;-2.99;82.50;98048.03;5053262;28;20390;-56
2022/01/21 05:10:35;;;;;;;39.53;22.92;;;;;;;-3.01;82.95;98048.84;5041864;28;20025;-56
2022/01/21 05:13:01;;;;;;;42.35;24.33;;;;;;;-2.92;82.43;98050.59;5056091;28;20025;-57
2022/01/21 05:17:52;;;;;;;43.40;24.08;;;;;;;-2.85;82.61;98053.19;5047429;28;20362;-57
2022/01/21 05:20:18;;;;;;;42.47;23.48;;;;;;;-3.21;81.85;98046.19;5043458;28;20056;-57
2022/01/21 05:22:44;;;;;;;40.22;22.02;;;;;;;-3.25;82.22;98054.59;5047219;28;20055;-57
2022/01/21 05:25:16;;;;;;;41.65;22.67;;;;;;;-2.99;82.86;98042.97;5056043;28;20254;-57
2022/01/21 05:27:45;;;;;;;39.72;22.88;;;;;;;-3.10;82.37;98061.47;5054974;28;20037;-58
2022/01/21 05:30:11;;;;;;;45.47;22.70;;;;;;;-3.23;82.00;98017.50;5055452;28;20025;-57
2022/01/21 05:32:36;;;;;;;40.40;23.05;;;;;;;-3.43;82.53;98035.91;5057784;28;20029;-57
2022/01/21 05:35:02;;;;;;;41.47;23.95;;;;;;;-3.32;82.37;98036.84;5057748;28;20094;-56
2022/01/21 05:37:29;;;;;;;41.88;22.77;;;;;;;-3.16;82.29;98026.84;5044790;28;20088;-57
2022/01/21 05:39:55;;;;;;;36.95;21.40;;;;;;;-3.34;82.01;98000.53;5058007;28;20074;-58
2022/01/21 05:42:21;;;;;;;48.22;24.33;;;;;;;-3.35;81.91;98003.94;5049887;28;20029;-58
2022/01/21 05:47:12;;;;;;;44.90;23.85;;;;;;;-3.18;82.00;98010.78;5055056;28;20222;-58
2022/01/21 05:49:38;;;;;;;44.78;21.77;;;;;;;-3.08;81.29;98007.44;5049998;28;20248;-57
2022/01/21 05:52:34;;;;;;;50.72;26.65;;;;;;;-3.14;81.70;98023.44;5060009;28;20108;-57
2022/01/21 05:54:54;;;;;;;53.17;26.55;;;;;;;-3.26;81.33;98007.34;5057856;28;20036;-57
2022/01/21 05:57:20;;;;;;;46.83;27.05;;;;;;;-3.29;81.59;97987.94;5046334;28;20025;-57
2022/01/21 05:59:46;;;;;;;54.03;27.38;;;;;;;-3.21;81.10;97996.41;5061532;28;20072;-57
2022/01/21 06:02:12;;;;;;;54.33;27.27;;;;;;;-3.41;82.25;97998.81;5062603;28;20033;-58
2022/01/21 06:04:40;;;;;;;56.90;26.80;;;;;;;-3.75;83.40;98030.59;5060911;28;20025;-57
2022/01/21 06:07:06;;;;;;;56.55;29.25;;;;;;;-3.78;83.21;97985.06;5045226;28;20070;-57
2022/01/21 06:09:32;;;;;;;43.67;21.15;;;;;;;-3.78;82.59;98002.75;5057674;28;20063;-57
2022/01/21 06:11:57;;;;;;;54.53;27.90;;;;;;;-3.58;82.82;97995.31;5059806;28;20029;-57
2022/01/21 06:14:25;;;;;;;56.03;27.73;;;;;;;-3.53;81.28;97994.53;5059816;28;20037;-58
2022/01/21 06:16:51;;;;;;;54.15;27.42;;;;;;;-3.48;81.62;97997.06;5033808;28;20033;-57
2022/01/21 06:19:17;;;;;;;53.45;28.13;;;;;;;-3.65;81.71;97990.22;5034894;28;20101;-57
2022/01/21 06:21:43;;;;;;;53.47;27.77;;;;;;;-3.66;82.63;97988.53;5044184;28;20029;-60
2022/01/21 06:24:12;;;;;;;51.88;27.00;;;;;;;-3.75;81.69;97988.44;5026524;28;20029;-57
2022/01/21 06:26:37;;;;;;;49.10;26.02;;;;;;;-3.67;82.73;97984.28;5026529;28;20032;-57
2022/01/21 06:29:04;;;;;;;50.83;26.85;;;;;;;-3.51;82.21;97987.78;5061992;28;20037;-57
2022/01/21 06:31:30;;;;;;;47.08;25.17;;;;;;;-3.93;81.18;97985.75;5045365;28;20049;-58
2022/01/21 06:33:57;;;;;;;48.45;25.38;;;;;;;-3.81;81.94;97975.75;5043822;28;20037;-57
2022/01/21 06:36:22;;;;;;;50.20;26.17;;;;;;;-3.86;81.83;97974.88;5044119;28;20379;-57
2022/01/21 06:38:48;;;;;;;47.83;28.08;;;;;;;-3.82;81.99;97979.09;5041758;28;20029;-57
2022/01/21 06:41:14;;;;;;;51.90;27.25;;;;;;;-3.78;81.13;97977.47;5044732;28;20041;-57
2022/01/21 06:43:40;;;;;;;54.63;26.35;;;;;;;-3.85;80.85;97976.56;5046342;28;20151;-58
2022/01/21 06:46:07;;;;;;;50.22;26.65;;;;;;;-4.02;81.85;97989.06;5045588;28;20017;-57
2022/01/21 06:48:33;;;;;;;45.17;23.73;;;;;;;-4.09;81.30;97988.16;5044160;28;20109;-56
2022/01/21 06:50:59;;;;;;;49.88;27.75;;;;;;;-3.92;81.49;97970.63;5045164;28;20072;-57
2022/01/21 06:53:24;;;;;;;47.88;26.67;;;;;;;-3.95;81.22;97970.56;5045373;28;20029;-57
2022/01/21 06:55:50;;;;;;;53.15;26.52;;;;;;;-3.64;80.84;97970.81;5042894;28;20037;-58
2022/01/21 06:58:16;;;;;;;47.35;26.88;;;;;;;-3.67;81.34;97968.28;5044047;28;20041;-56
2022/01/21 07:00:42;;;;;;;51.45;27.63;;;;;;;-3.67;80.55;97974.16;5051060;28;20093;-59
2022/01/21 07:03:07;;;;;;;45.90;25.70;;;;;;;-3.67;80.82;97968.28;5044064;28;20033;-57
2022/01/21 07:05:33;;;;;;;44.33;26.48;;;;;;;-3.47;80.62;97971.78;5044602;28;20334;-57
2022/01/21 07:08:00;;;;;;;45.25;23.65;;;;;;;-3.85;80.42;97963.91;5047438;28;20044;-58
2022/01/21 07:10:27;;;;;;;42.42;22.83;;;;;;;-4.20;81.16;97977.09;5056511;28;20044;-58
2022/01/21 07:12:53;;;;;;;46.00;25.42;;;;;;;-4.00;81.03;97990.75;5043545;28;20080;-57
2022/01/21 07:15:19;;;;;;;47.30;25.27;;;;;;;-3.91;81.95;97986.63;5043413;28;20053;-59
2022/01/21 07:17:46;;;;;;;47.08;25.17;;;;;;;-3.95;82.22;97980.69;5045436;28;20031;-58
2022/01/21 07:20:13;;;;;;;49.03;25.15;;;;;;;-3.89;81.29;97980.75;5045483;28;20029;-58
2022/01/21 07:22:39;;;;;;;47.95;26.27;;;;;;;-3.76;81.22;97989.28;5044979;28;20041;-58
2022/01/21 07:25:06;;;;;;;46.35;25.75;;;;;;;-3.96;80.69;98000.91;5044351;28;20333;-58
2022/01/21 07:27:32;;;;;;;45.05;23.60;;;;;;;-3.76;81.82;97991.81;5043086;28;20101;-58
2022/01/21 07:29:57;;;;;;;48.45;26.08;;;;;;;-3.82;81.92;98001.88;5044071;28;20029;-58
2022/01/21 07:32:23;;;;;;;39.90;22.38;;;;;;;-4.01;80.34;97990.75;5044158;28;20344;-58
2022/01/21 07:34:49;;;;;;;45.83;25.67;;;;;;;-3.78;81.45;97990.09;5044083;28;20026;-57
2022/01/21 07:37:14;;;;;;;44.33;23.50;;;;;;;-3.76;80.08;97989.28;5043006;28;20033;-57
2022/01/21 07:39:40;;;;;;;47.05;23.52;;;;;;;-3.79;79.69;97980.81;5043210;28;20056;-58
2022/01/21 07:42:06;;;;;;;40.58;22.13;;;;;;;-3.53;79.76;97978.50;5044498;28;20049;-58
2022/01/21 07:44:32;;;;;;;42.67;23.27;;;;;;;-3.88;79.99;97987.50;5045313;28;20033;-58
2022/01/21 07:46:57;;;;;;;41.78;22.80;;;;;;;-3.79;79.73;97980.81;5045062;28;20029;-57
2022/01/21 07:49:23;;;;;;;38.13;21.92;;;;;;;-3.61;80.22;97980.13;5042434;28;20036;-58
2022/01/21 07:51:49;;;;;;;35.80;20.55;;;;;;;-3.92;80.88;97982.41;5043910;28;20060;-58
2022/01/21 07:54:14;;;;;;;38.70;19.95;;;;;;;-4.27;81.12;97978.72;5043731;28;20348;-57
2022/01/21 07:56:40;;;;;;;35.85;18.80;;;;;;;-4.18;80.77;97980.47;5047996;28;20033;-58
2022/01/21 07:59:08;;;;;;;34.80;19.27;;;;;;;-4.31;82.04;97966.88;5054708;28;20025;-57
2022/01/21 08:01:34;;;;;;;35.05;18.85;;;;;;;-4.25;81.48;97977.03;5043496;28;20035;-57
2022/01/21 08:04:01;;;;;;;33.90;17.77;;;;;;;-4.45;82.58;97973.47;5042974;28;20097;-57
2022/01/21 08:06:27;;;;;;;23.92;12.38;;;;;;;-4.72;82.56;97960.59;5060536;28;20360;-59
2022/01/21 08:08:54;;;;;;;29.67;18.02;;;;;;;-4.62;82.82;97965.72;5042740;28;20033;-58
2022/01/21 08:11:20;;;;;;;36.25;20.45;;;;;;;-4.57;83.39;97971.69;5042457;28;20277;-57
2022/01/21 08:13:46;;;;;;;30.98;19.35;;;;;;;-4.35;81.69;97960.97;5045168;28;20029;-57
2022/01/21 08:16:12;;;;;;;30.67;15.68;;;;;;;-4.58;81.50;97954.81;5044657;28;20318;-58
2022/01/21 08:18:37;;;;;;;34.08;18.88;;;;;;;-4.30;82.87;97962.66;5044325;28;20037;-57
2022/01/21 08:21:03;;;;;;;35.72;18.38;;;;;;;-4.38;82.57;97960.91;5047544;28;20262;-57
2022/01/21 08:23:28;;;;;;;34.30;18.73;;;;;;;-4.33;80.74;97963.50;5057860;28;20313;-57
2022/01/21 08:25:54;;;;;;;30.33;18.73;;;;;;;-4.26;81.18;97966.91;5055426;28;20041;-56
2022/01/21 08:28:20;;;;;;;29.48;18.25;;;;;;;-4.01;82.14;97965.47;5043242;28;20345;-57
2022/01/21 08:30:46;;;;;;;32.83;18.55;;;;;;;-4.00;80.57;97965.50;5041763;28;20026;-58
2022/01/21 08:33:11;;;;;;;34.55;18.08;;;;;;;-4.19;80.99;97973.72;5052641;28;20305;-57
2022/01/21 08:35:37;;;;;;;31.48;16.77;;;;;;;-4.32;79.41;97969.41;5056828;28;20072;-58
2022/01/21 08:38:04;;;;;;;29.50;17.75;;;;;;;-4.28;80.92;97971.97;5057227;28;20044;-57
2022/01/21 08:40:30;;;;;;;26.63;15.10;;;;;;;-4.33;79.52;97971.09;5047294;28;20100;-58
2022/01/21 08:42:55;;;;;;;34.35;18.33;;;;;;;-4.09;80.07;97947.72;5050734;28;20294;-57
2022/01/21 08:45:21;;;;;;;28.35;17.70;;;;;;;-3.83;80.18;97954.69;5057401;28;20020;-57
2022/01/21 08:47:48;;;;;;;27.67;14.95;;;;;;;-4.03;78.70;97947.78;5054249;28;20044;-58
2022/01/21 08:50:17;;;;;;;29.55;17.40;;;;;;;-4.22;78.95;97880.19;5043876;28;20026;-57
2022/01/21 08:52:44;;;;;;;29.58;16.77;;;;;;;-4.18;78.82;97933.31;5045714;28;20361;-56
2022/01/21 08:55:14;;;;;;;27.67;16.27;;;;;;;-4.20;78.56;97940.03;5046942;28;20033;-57
2022/01/21 08:57:42;;;;;;;27.48;16.42;;;;;;;-3.90;79.69;97970.63;5042291;28;20189;-57
2022/01/21 09:00:14;;;;;;;27.77;16.90;;;;;;;-4.05;78.88;97944.38;5041395;28;20044;-57
2022/01/21 09:02:40;;;;;;;30.30;16.40;;;;;;;-4.05;79.54;97944.38;5042511;28;20044;-57
2022/01/21 09:05:07;;;;;;;27.17;16.08;;;;;;;-4.34;80.70;97947.47;5043457;28;20299;-57
2022/01/21 09:07:33;;;;;;;29.70;16.95;;;;;;;-4.17;79.39;97934.16;5042729;28;20022;-57
2022/01/21 09:09:58;;;;;;;24.50;14.48;;;;;;;-4.56;79.08;97940.53;5045548;28;20092;-57
2022/01/21 09:12:24;;;;;;;31.45;15.85;;;;;;;-4.46;79.90;97928.84;5044643;28;20025;-57
2022/01/21 09:14:50;;;;;;;26.55;15.95;;;;;;;-4.40;79.11;97939.84;5045367;28;20101;-57
2022/01/21 09:17:17;;;;;;;26.70;16.15;;;;;;;-4.26;80.18;97934.06;5046181;28;20025;-58
2022/01/21 09:19:43;;;;;;;31.63;17.30;;;;;;;-4.19;80.07;97926.56;5045641;28;20025;-57
2022/01/21 09:22:09;;;;;;;30.60;16.80;;;;;;;-4.10;79.91;97938.44;5045756;28;20257;-57
2022/01/21 09:24:36;;;;;;;29.15;15.85;;;;;;;-3.91;79.58;97931.00;5045886;28;20021;-57
2022/01/21 09:27:03;;;;;;;25.38;14.00;;;;;;;-4.66;80.00;97921.91;5047852;28;20043;-57
2022/01/21 09:29:29;;;;;;;27.52;15.88;;;;;;;-4.30;79.70;97928.16;5046112;28;20376;-57
2022/01/21 09:31:54;;;;;;;27.02;15.50;;;;;;;-4.25;79.54;97915.56;5045587;28;20049;-57
2022/01/21 09:34:21;;;;;;;20.42;12.38;;;;;;;-4.59;79.86;97923.69;5046752;28;20026;-56
2022/01/21 09:36:46;;;;;;;26.60;15.75;;;;;;;-4.69;79.86;97920.22;5046619;28;20070;-57
2022/01/21 09:39:13;;;;;;;25.58;14.02;;;;;;;-4.66;80.89;97926.94;5046384;28;20025;-56
2022/01/21 09:41:42;;;;;;;24.55;15.20;;;;;;;-4.48;79.67;97916.19;5046080;28;20041;-57
2022/01/21 09:44:15;;;;;;;27.15;14.52;;;;;;;-4.79;79.43;97862.84;5043831;28;20033;-57
2022/01/21 09:46:47;;;;;;;28.05;15.50;;;;;;;-4.45;79.09;97901.06;5045809;28;20025;-57
2022/01/21 09:49:26;;;;;;;25.73;14.38;;;;;;;-4.57;78.88;97898.44;5045947;28;20045;-57
2022/01/21 09:51:55;;;;;;;26.85;15.40;;;;;;;-4.74;80.10;97830.94;5045792;28;20083;-57
2022/01/21 09:54:22;;;;;;;22.08;12.52;;;;;;;-4.77;78.62;97918.44;5059174;28;20034;-57
2022/01/21 09:56:49;;;;;;;27.77;14.60;;;;;;;-4.39;80.15;97893.56;5046007;28;20029;-57
2022/01/21 09:59:20;;;;;;;22.85;14.02;;;;;;;-4.89;79.17;97813.13;5045502;28;20025;-56
2022/01/21 10:01:51;;;;;;;27.50;15.05;;;;;;;-5.13;80.00;97828.84;5058589;28;20032;-57
2022/01/21 10:04:19;;;;;;;27.27;15.25;;;;;;;-4.64;79.44;97891.63;5058183;28;20092;-57
2022/01/21 10:06:46;;;;;;;24.90;15.20;;;;;;;-4.62;81.41;97829.34;5060695;28;20044;-56
2022/01/21 10:09:20;;;;;;;24.88;14.77;;;;;;;-4.61;80.69;97856.31;5053271;28;20057;-56
2022/01/21 10:11:47;;;;;;;25.98;15.68;;;;;;;-4.42;81.46;97878.34;5046489;28;20029;-57
2022/01/21 10:14:13;;;;;;;20.00;11.45;;;;;;;-4.84;81.26;97884.69;5046352;28;20025;-56
2022/01/21 10:16:42;;;;;;;25.35;15.27;;;;;;;-4.92;82.36;97878.72;5047035;28;20033;-57
2022/01/21 10:19:10;;;;;;;32.35;17.52;;;;;;;-4.68;82.64;97883.16;5060480;28;20057;-57
2022/01/21 10:21:38;;;;;;;29.00;16.58;;;;;;;-4.38;81.40;97875.03;5060072;28;20033;-58
2022/01/21 10:24:05;;;;;;;28.63;15.23;;;;;;;-4.69;80.71;97904.19;5045158;28;20029;-57
2022/01/21 10:26:31;;;;;;;29.15;16.02;;;;;;;-4.75;80.68;97874.69;5042043;28;20077;-57
2022/01/21 10:28:57;;;;;;;28.35;16.75;;;;;;;-4.85;81.57;97872.91;5042069;28;20092;-57
2022/01/21 10:31:24;;;;;;;26.30;14.48;;;;;;;-4.70;81.92;97874.75;5042253;28;20045;-57
2022/01/21 10:33:56;;;;;;;24.75;15.80;;;;;;;-4.92;81.62;97866.94;5041331;28;20045;-57
2022/01/21 10:36:27;;;;;;;33.70;17.30;;;;;;;-4.87;81.34;97874.56;5044082;28;20218;-56
2022/01/21 10:39:05;;;;;;;27.27;14.75;;;;;;;-4.91;82.08;97875.38;5039965;28;20057;-57
2022/01/21 10:41:34;;;;;;;28.23;14.80;;;;;;;-4.81;81.55;97899.03;5038537;28;20049;-57
2022/01/21 10:44:12;;;;;;;25.95;16.83;;;;;;;-4.98;82.00;97845.84;5039955;28;20045;-57
2022/01/21 10:46:41;;;;;;;28.88;16.50;;;;;;;-4.86;81.11;97868.66;5039304;28;20040;-57
2022/01/21 10:49:12;;;;;;;29.00;17.63;;;;;;;-5.40;81.04;97765.53;5040127;28;20034;-57
2022/01/21 10:51:40;;;;;;;28.83;16.50;;;;;;;-4.86;81.23;97816.53;5037889;28;20021;-57
2022/01/21 10:54:13;;;;;;;28.98;17.25;;;;;;;-5.15;82.06;97788.47;5041595;28;20093;-57
2022/01/21 10:56:39;;;;;;;33.33;15.95;;;;;;;-4.81;81.03;97846.84;5044040;28;20357;-57
2022/01/21 10:59:05;;;;;;;27.63;15.27;;;;;;;-4.88;80.97;97842.59;5045521;28;20030;-57
2022/01/21 11:01:30;;;;;;;26.48;15.98;;;;;;;-4.75;80.78;97856.16;5043900;28;20223;-58
2022/01/21 11:04:03;;;;;;;27.67;16.10;;;;;;;-4.56;81.82;97844.53;5041502;28;20033;-57
2022/01/21 11:06:52;;;;;;;30.00;15.60;;;;;;;-4.75;80.49;97835.97;5043406;28;20039;-57
2022/01/21 11:09:22;;;;;;;35.83;18.52;;;;;;;-4.49;81.52;97851.34;5049476;28;20104;-57
2022/01/21 11:12:06;;;;;;;28.50;16.52;;;;;;;-4.74;79.76;97846.09;5044983;28;20029;-56
2022/01/21 11:14:34;;;;;;;29.00;17.10;;;;;;;-4.74;79.56;97833.47;5049181;28;20167;-57
2022/01/21 11:17:16;;;;;;;29.13;17.83;;;;;;;-4.80;80.48;97765.25;5044745;28;20075;-57
2022/01/21 11:20:02;;;;;;;31.42;19.08;;;;;;;-4.74;81.63;97837.66;5044565;28;20029;-56
2022/01/21 11:22:29;;;;;;;31.60;18.27;;;;;;;-4.70;80.95;97821.72;5050157;28;20040;-57
2022/01/21 11:24:59;;;;;;;30.88;17.90;;;;;;;-4.77;80.11;97825.03;5051900;28;20038;-57
2022/01/21 11:27:25;;;;;;;32.47;18.77;;;;;;;-4.70;80.99;97830.13;5059228;28;20205;-57
2022/01/21 11:29:51;;;;;;;26.60;13.32;;;;;;;-5.06;80.55;97849.13;5059173;28;20033;-57
2022/01/21 11:32:17;;;;;;;30.08;17.42;;;;;;;-4.88;79.92;97827.44;5056932;28;20075;-57
2022/01/21 11:34:43;;;;;;;31.95;18.40;;;;;;;-4.83;81.01;97824.94;5044219;28;20024;-57
2022/01/21 11:37:09;;;;;;;37.15;17.30;;;;;;;-4.84;79.90;97829.16;5043165;28;20064;-57
2022/01/21 11:39:36;;;;;;;34.95;16.88;;;;;;;-5.20;78.97;97825.44;5043303;28;20060;-58
2022/01/21 11:42:06;;;;;;;32.65;18.67;;;;;;;-5.10;80.62;97822.19;5044667;28;20048;-56
2022/01/21 11:44:35;;;;;;;27.50;14.73;;;;;;;-5.30;79.41;97837.09;5044189;28;20044;-57
2022/01/21 11:47:50;;;;;;;34.63;18.67;;;;;;;-5.29;80.16;97833.72;5049786;28;20310;-56
2022/01/21 11:49:58;;;;;;;36.53;20.00;;;;;;;-5.05;80.41;97819.69;5044550;28;20056;-57
2022/01/21 11:52:23;;;;;;;36.97;19.60;;;;;;;-4.96;79.99;97839.13;5046768;28;20089;-58
2022/01/21 11:54:50;;;;;;;34.42;17.95;;;;;;;-5.04;79.06;97831.50;5043965;28;20033;-57
2022/01/21 11:57:25;;;;;;;32.42;18.67;;;;;;;-4.98;79.95;97835.75;5050095;28;20021;-56
2022/01/21 11:59:58;;;;;;;38.25;19.88;;;;;;;-4.81;80.37;97834.22;5050259;28;20037;-57
2022/01/21 12:02:32;;;;;;;35.80;19.27;;;;;;;-5.62;79.95;97764.41;5026340;28;20025;-57
2022/01/21 12:05:10;;;;;;;36.25;18.80;;;;;;;-4.92;80.47;97856.84;5037340;28;20029;-56
2022/01/21 12:07:44;;;;;;;32.83;19.20;;;;;;;-4.85;78.76;97825.78;5052067;28;20086;-58
2022/01/21 12:10:17;;;;;;;37.03;20.27;;;;;;;-4.93;80.01;97839.16;5058376;28;20029;-56
2022/01/21 12:12:46;;;;;;;35.75;19.63;;;;;;;-4.66;80.21;97832.69;5051357;28;20071;-57
2022/01/21 12:15:34;;;;;;;36.25;19.50;;;;;;;-4.75;79.25;97833.44;5053926;28;20113;-58